Campbell Foss — WDC7754 — position and weather

sailwx.info

Track history (hours):
 
Tides and Currents Weather Stations Pressure Air Temp Water Temp Dewpoint Dewpoint Depression Visibility Wind Speed Wind Dir Waves Ship Positions

Campbell Foss

Owner: Foss Maritime Co., Seattle, WA. More information available from US FCC via Universal Licensing System and Coast Guard Vessel Documentation Center.

Last reported at 2015-Aug-03 06:32 UTC. Time now 2015-Aug-03 06:35 UTC.
Position N 33°46' W 118°13'.

Length 23 m; draft 16 m.

Type: Tug. MMSI: 367076360.

Date/timePositionNaut miles runAvg speedWind from/ knotsBaromVisibWave heightAir tempDewpointWater temp
2015-Aug-03 06:32N 33°46' W 118°13'1 1.0
2015-Aug-03 05:33N 33°46' W 118°14'2 1.9
2015-Aug-03 04:24N 33°44' W 118°15'0 0.0
2015-Aug-03 03:32N 33°44' W 118°15'0 0.1
2015-Aug-03 02:33N 33°44' W 118°15'2 1.5
2015-Aug-03 01:33N 33°45' W 118°16'1 0.5
2015-Aug-03 00:33N 33°45' W 118°16'1 1.1
2015-Aug-02 23:33N 33°46' W 118°16'4 3.7
2015-Aug-02 22:28N 33°44' W 118°12'1 1.0
2015-Aug-02 21:33N 33°45' W 118°12'1 1.0
2015-Aug-02 20:33N 33°46' W 118°13'0 0.0
2015-Aug-02 19:33N 33°46' W 118°13'0 0.0
2015-Aug-02 18:32N 33°46' W 118°13'3 1.7
2015-Aug-02 16:32N 33°44' W 118°16'0 0.0
2015-Aug-02 15:30N 33°44' W 118°16'1 0.7
2015-Aug-02 14:30N 33°44' W 118°17'2 1.7
2015-Aug-02 13:33N 33°46' W 118°16'2 1.8
2015-Aug-02 12:31N 33°44' W 118°15'2 0.8
2015-Aug-02 10:33N 33°43' W 118°13'2 2.1
2015-Aug-02 09:33N 33°45' W 118°13'0 0.2
2015-Aug-02 08:33N 33°46' W 118°13'0 0.0
2015-Aug-02 07:33N 33°46' W 118°13'0 0.0
2015-Aug-02 06:33N 33°46' W 118°13'0 0.0
2015-Aug-02 05:33N 33°46' W 118°13'2 1.9
2015-Aug-02 04:33N 33°46' W 118°15'2 0.2
2015-Aug-01 20:29N 33°44' W 118°17'3 3.1
2015-Aug-01 19:33N 33°46' W 118°14'1 0.5
2015-Aug-01 18:33N 33°46' W 118°13'4 3.5
2015-Aug-01 17:32N 33°43' W 118°16'4 3.6
2015-Aug-01 16:33N 33°46' W 118°14'3 2.5
2015-Aug-01 15:17N 33°44' W 118°17'2 2.7
2015-Aug-01 14:33N 33°46' W 118°16'0 0.1
2015-Aug-01 13:33N 33°46' W 118°16'2 2.0
2015-Aug-01 12:33N 33°44' W 118°15'1 1.0
2015-Aug-01 11:28N 33°44' W 118°17'2 1.7
2015-Aug-01 10:33N 33°46' W 118°16'0 0.0
2015-Aug-01 09:33N 33°46' W 118°16'0 0.0
2015-Aug-01 08:33N 33°46' W 118°16'3 2.4
2015-Aug-01 07:24N 33°45' W 118°13'1 0.6
2015-Aug-01 06:33N 33°46' W 118°13'0 0.1
2015-Aug-01 05:33N 33°46' W 118°13'0 0.4
2015-Aug-01 04:33N 33°45' W 118°13'0 0.3
2015-Aug-01 03:33N 33°45' W 118°13'5 4.6
2015-Aug-01 02:33N 33°41' W 118°11'3 2.6
2015-Aug-01 01:32N 33°44' W 118°11'3 2.7
2015-Aug-01 00:32N 33°46' W 118°13'0 0.0
2015-Jul-31 23:33N 33°46' W 118°13'1 0.8
2015-Jul-31 22:33N 33°46' W 118°14'2 2.1
2015-Jul-31 21:33N 33°46' W 118°17'3 3.2
2015-Jul-31 20:33N 33°43' W 118°14'2 1.8
2015-Jul-31 19:32N 33°44' W 118°12'1 0.7
2015-Jul-31 18:25N 33°44' W 118°12'2 2.6
2015-Jul-31 17:32N 33°46' W 118°13'0 0.1
2015-Jul-31 16:33N 33°46' W 118°13'3 2.6
2015-Jul-31 15:33N 33°45' W 118°16'1 1.0
2015-Jul-31 14:33N 33°46' W 118°16'2 1.5
2015-Jul-31 13:33N 33°46' W 118°14'2 2.3
2015-Jul-31 12:33N 33°44' W 118°12'2 1.4
2015-Jul-31 11:29N 33°46' W 118°13'0 0.0
2015-Jul-31 10:33N 33°46' W 118°13'0 0.0
2015-Jul-31 09:31N 33°46' W 118°13'0 0.0
2015-Jul-31 08:28N 33°46' W 118°13'0 0.0
2015-Jul-31 07:19N 33°46' W 118°13'3 0.9
2015-Jul-31 04:33N 33°45' W 118°16'1 0.7
2015-Jul-31 03:30N 33°46' W 118°16'0 0.0
2015-Jul-31 02:32N 33°46' W 118°16'2 2.2
2015-Jul-31 01:33N 33°46' W 118°13'0 0.0
2015-Jul-31 00:33N 33°46' W 118°13'1 0.7
2015-Jul-30 23:33N 33°45' W 118°13'3 1.5
2015-Jul-30 21:29N 33°44' W 118°17'0 0.5
2015-Jul-30 20:27N 33°45' W 118°16'3 2.4
2015-Jul-30 19:14N 33°45' W 118°13'1 0.6
2015-Jul-30 18:25N 33°46' W 118°13'4 4.2
2015-Jul-30 17:33N 33°44' W 118°09'0 0.0
2015-Jul-30 16:25N 33°44' W 118°09'1 1.2
2015-Jul-30 15:33N 33°44' W 118°10'1 1.3
2015-Jul-30 14:24N 33°43' W 118°11'4 4.8
2015-Jul-30 13:34N 33°46' W 118°13'1 1.2
2015-Jul-30 12:34N 33°45' W 118°13'0 0.0
2015-Jul-30 11:33N 33°45' W 118°13'0 0.0
2015-Jul-30 10:33N 33°45' W 118°13'0 0.0
2015-Jul-30 09:27N 33°45' W 118°13'0 0.0
2015-Jul-30 08:33N 33°45' W 118°13'0 0.0
2015-Jul-30 07:33N 33°45' W 118°13'1 0.6
2015-Jul-30 06:30N 33°46' W 118°13'0 0.0
2015-Jul-30 05:34N 33°46' W 118°13'2 2.0
2015-Jul-30 04:33N 33°46' W 118°16'0 0.5
2015-Jul-30 03:33N 33°45' W 118°16'2 1.7
2015-Jul-30 02:10N 33°45' W 118°13'1 1.0
2015-Jul-30 01:33N 33°46' W 118°13'3 2.9
2015-Jul-30 00:33N 33°45' W 118°16'3 3.0
2015-Jul-29 23:33N 33°45' W 118°13'3 3.0
2015-Jul-29 22:33N 33°46' W 118°17'3 1.3
2015-Jul-29 20:29N 33°45' W 118°13'0 0.2
2015-Jul-29 18:33N 33°45' W 118°13'3 2.4
2015-Jul-29 17:18N 33°44' W 118°16'2 3.1
2015-Jul-29 16:33N 33°46' W 118°16'2 2.3
2015-Jul-29 15:33N 33°45' W 118°13'1 1.4
2015-Jul-29 14:33N 33°46' W 118°13'1 1.3
2015-Jul-29 13:31N 33°45' W 118°14'2 2.1
2015-Jul-29 12:24N 33°43' W 118°16'1 0.9
2015-Jul-29 11:33N 33°44' W 118°15'0 0.0
2015-Jul-29 10:33N 33°44' W 118°15'2 2.2
2015-Jul-29 09:30N 33°45' W 118°13'1 1.1
2015-Jul-29 08:33N 33°46' W 118°13'0 0.0
2015-Jul-29 07:33N 33°46' W 118°13'0 0.0
2015-Jul-29 06:33N 33°46' W 118°13'5 2.3
2015-Jul-29 04:25N 33°41' W 118°11'4 5.1
2015-Jul-29 03:33N 33°45' W 118°13'0 0.0
2015-Jul-29 02:19N 33°45' W 118°13'0 0.5
2015-Jul-29 01:24N 33°45' W 118°14'0 0.1
2015-Jul-29 00:29N 33°45' W 118°14'1 1.3
2015-Jul-28 23:33N 33°45' W 118°12'1 1.0
2015-Jul-28 22:29N 33°46' W 118°13'2 2.0
2015-Jul-28 21:24N 33°44' W 118°11'1 0.8
2015-Jul-28 20:21N 33°44' W 118°12'2 3.1
2015-Jul-28 19:33N 33°46' W 118°13'1 0.6
2015-Jul-28 18:33N 33°46' W 118°13'0 0.0
2015-Jul-28 17:33N 33°46' W 118°13'0 0.0
2015-Jul-28 16:33N 33°46' W 118°13'0 0.5
2015-Jul-28 15:33N 33°46' W 118°13'0 0.1
2015-Jul-28 14:33N 33°46' W 118°13'4 1.7
2015-Jul-28 12:22N 33°43' W 118°14'1 0.6
2015-Jul-28 11:07N 33°42' W 118°15'2 3.4
2015-Jul-28 10:33N 33°44' W 118°14'2 2.0
2015-Jul-28 09:33N 33°46' W 118°13'0 0.0
2015-Jul-28 08:33N 33°46' W 118°13'0 0.0
2015-Jul-28 07:33N 33°46' W 118°13'0 0.0
2015-Jul-28 06:33N 33°46' W 118°13'0 0.1
2015-Jul-28 05:34N 33°46' W 118°13'0 0.0
2015-Jul-28 04:33N 33°46' W 118°13'0 0.0
2015-Jul-28 03:32N 33°46' W 118°13'0 0.2
2015-Jul-28 02:33N 33°46' W 118°13'3 2.8
2015-Jul-28 01:26N 33°44' W 118°16'0 0.1
2015-Jul-28 00:16N 33°44' W 118°16'0 0.3
2015-Jul-27 23:33N 33°44' W 118°16'0 0.0
2015-Jul-27 22:33N 33°44' W 118°16'2 1.6
2015-Jul-27 21:19N 33°44' W 118°13'1 0.8
2015-Jul-27 19:32N 33°45' W 118°12'1 1.1
2015-Jul-27 18:33N 33°46' W 118°13'0 0.0
2015-Jul-27 17:33N 33°46' W 118°13'0 0.0
2015-Jul-27 16:32N 33°46' W 118°13'0 0.1
2015-Jul-27 15:33N 33°46' W 118°13'1 0.5
2015-Jul-27 12:29N 33°44' W 118°13'1 0.5
2015-Jul-27 11:10N 33°44' W 118°13'2 2.4
2015-Jul-27 10:33N 33°46' W 118°13'0 0.0
2015-Jul-27 09:33N 33°46' W 118°13'0 0.0
2015-Jul-27 08:33N 33°46' W 118°13'0 0.0
2015-Jul-27 07:33N 33°46' W 118°13'0 0.0
2015-Jul-27 06:33N 33°46' W 118°13'0 0.0
2015-Jul-27 05:33N 33°46' W 118°13'0 0.0
2015-Jul-27 04:33N 33°46' W 118°13'2 2.1
2015-Jul-27 03:33N 33°46' W 118°16'0 0.1
2015-Jul-27 02:33N 33°46' W 118°16'0 0.4
2015-Jul-27 01:33N 33°45' W 118°16'4 4.0
2015-Jul-27 00:30N 33°42' W 118°14'2 1.8
2015-Jul-26 23:23N 33°44' W 118°14'3 3.1
2015-Jul-26 22:30N 33°46' W 118°13'0 0.0
2015-Jul-26 21:08N 33°46' W 118°13'1 2.1
2015-Jul-26 20:33N 33°46' W 118°14'1 1.4
2015-Jul-26 19:33N 33°45' W 118°13'1 0.7
2015-Jul-26 18:33N 33°46' W 118°13'0 0.0
2015-Jul-26 17:28N 33°46' W 118°13'0 0.0
2015-Jul-26 16:33N 33°46' W 118°13'3 2.6
2015-Jul-26 15:32N 33°43' W 118°14'3 2.9
2015-Jul-26 14:33N 33°46' W 118°16'2 2.0
2015-Jul-26 13:33N 33°46' W 118°13'0 0.0
2015-Jul-26 12:33N 33°46' W 118°13'0 0.0
2015-Jul-26 11:33N 33°46' W 118°13'0 0.0
2015-Jul-26 10:33N 33°46' W 118°13'0 0.0
2015-Jul-26 09:33N 33°46' W 118°13'0 0.0
2015-Jul-26 08:34N 33°46' W 118°13'0 0.0
2015-Jul-26 07:33N 33°46' W 118°13'0 0.0
2015-Jul-26 06:27N 33°46' W 118°13'0 0.0
2015-Jul-26 05:33N 33°46' W 118°13'0 0.0
2015-Jul-26 04:33N 33°46' W 118°13'0 0.0
2015-Jul-26 03:34N 33°46' W 118°13'0 0.0
2015-Jul-26 02:33N 33°46' W 118°13'0 0.0
2015-Jul-26 01:33N 33°46' W 118°13'0 0.0
2015-Jul-26 00:33N 33°46' W 118°13'0 0.0
2015-Jul-25 23:33N 33°46' W 118°13'0 0.0
2015-Jul-25 22:22N 33°46' W 118°13'0 0.0
2015-Jul-25 21:32N 33°46' W 118°13'0 0.2
2015-Jul-25 20:33N 33°46' W 118°13'2 1.7
2015-Jul-25 19:33N 33°44' W 118°12'2 1.9
2015-Jul-25 18:33N 33°46' W 118°13'0 0.0
2015-Jul-25 17:33N 33°46' W 118°13'0 0.0
2015-Jul-25 16:34N 33°46' W 118°13'0 0.0
2015-Jul-25 15:33N 33°46' W 118°13'0 0.0
2015-Jul-25 14:33N 33°46' W 118°13'3 2.8
2015-Jul-25 13:33N 33°44' W 118°11'5 4.8
2015-Jul-25 12:33N 33°45' W 118°16'1 1.1
2015-Jul-25 11:34N 33°46' W 118°16'0 0.1
2015-Jul-25 10:30N 33°46' W 118°16'3 3.2
2015-Jul-25 09:33N 33°43' W 118°15'3 1.6
2015-Jul-25 07:31N 33°46' W 118°13'0 0.0
2015-Jul-25 06:33N 33°46' W 118°13'1 0.2
2015-Jul-25 03:16N 33°46' W 118°13'0 0.0
2015-Jul-25 01:25N 33°46' W 118°13'2 1.8
2015-Jul-25 00:33N 33°46' W 118°15'2 2.2
2015-Jul-24 23:33N 33°44' W 118°15'1 1.2
2015-Jul-24 22:33N 33°45' W 118°16'3 1.3
2015-Jul-24 20:31N 33°45' W 118°13'1 0.7
2015-Jul-24 19:33N 33°46' W 118°13'0 0.0
2015-Jul-24 18:33N 33°46' W 118°13'0 0.0
2015-Jul-24 17:28N 33°46' W 118°13'0 0.0
2015-Jul-24 16:27N 33°46' W 118°13'2 2.3
2015-Jul-24 15:25N 33°44' W 118°15'2 2.3
2015-Jul-24 14:33N 33°46' W 118°16'2 2.0
2015-Jul-24 13:31N 33°44' W 118°15'0 0.2
2015-Jul-24 12:33N 33°44' W 118°15'0 0.0
2015-Jul-24 11:33N 33°44' W 118°15'1 0.6
2015-Jul-24 10:32N 33°44' W 118°15'3 2.4
2015-Jul-24 09:30N 33°45' W 118°13'1 0.9
2015-Jul-24 08:33N 33°46' W 118°13'0 0.0
2015-Jul-24 07:33N 33°46' W 118°13'0 0.0
2015-Jul-24 06:33N 33°46' W 118°13'  
Track history (hours):
 
Tides and Currents Weather Stations Pressure Air Temp Water Temp Dewpoint Dewpoint Depression Visibility Wind Speed Wind Dir Waves Ship Positions

Campbell Foss

Owner: Foss Maritime Co., Seattle, WA. More information available from US FCC via Universal Licensing System and Coast Guard Vessel Documentation Center.

Last reported at 2015-Aug-03 06:32 UTC. Time now 2015-Aug-03 06:35 UTC.
Position N 33°46' W 118°13'.

Length 23 m; draft 16 m.

Type: Tug. MMSI: 367076360.

Date/timePositionNaut miles runAvg speedWind from/ knotsBaromVisibWave heightAir tempDewpointWater temp
2015-Aug-03 06:32N 33°46' W 118°13'1 1.0
2015-Aug-03 05:33N 33°46' W 118°14'2 1.9
2015-Aug-03 04:24N 33°44' W 118°15'0 0.0
2015-Aug-03 03:32N 33°44' W 118°15'0 0.1
2015-Aug-03 02:33N 33°44' W 118°15'2 1.5
2015-Aug-03 01:33N 33°45' W 118°16'1 0.5
2015-Aug-03 00:33N 33°45' W 118°16'1 1.1
2015-Aug-02 23:33N 33°46' W 118°16'4 3.7
2015-Aug-02 22:28N 33°44' W 118°12'1 1.0
2015-Aug-02 21:33N 33°45' W 118°12'1 1.0
2015-Aug-02 20:33N 33°46' W 118°13'0 0.0
2015-Aug-02 19:33N 33°46' W 118°13'0 0.0
2015-Aug-02 18:32N 33°46' W 118°13'3 1.7
2015-Aug-02 16:32N 33°44' W 118°16'0 0.0
2015-Aug-02 15:30N 33°44' W 118°16'1 0.7
2015-Aug-02 14:30N 33°44' W 118°17'2 1.7
2015-Aug-02 13:33N 33°46' W 118°16'2 1.8
2015-Aug-02 12:31N 33°44' W 118°15'2 0.8
2015-Aug-02 10:33N 33°43' W 118°13'2 2.1
2015-Aug-02 09:33N 33°45' W 118°13'0 0.2
2015-Aug-02 08:33N 33°46' W 118°13'0 0.0
2015-Aug-02 07:33N 33°46' W 118°13'0 0.0
2015-Aug-02 06:33N 33°46' W 118°13'0 0.0
2015-Aug-02 05:33N 33°46' W 118°13'2 1.9
2015-Aug-02 04:33N 33°46' W 118°15'2 0.2
2015-Aug-01 20:29N 33°44' W 118°17'3 3.1
2015-Aug-01 19:33N 33°46' W 118°14'1 0.5
2015-Aug-01 18:33N 33°46' W 118°13'4 3.5
2015-Aug-01 17:32N 33°43' W 118°16'4 3.6
2015-Aug-01 16:33N 33°46' W 118°14'3 2.5
2015-Aug-01 15:17N 33°44' W 118°17'2 2.7
2015-Aug-01 14:33N 33°46' W 118°16'0 0.1
2015-Aug-01 13:33N 33°46' W 118°16'2 2.0
2015-Aug-01 12:33N 33°44' W 118°15'1 1.0
2015-Aug-01 11:28N 33°44' W 118°17'2 1.7
2015-Aug-01 10:33N 33°46' W 118°16'0 0.0
2015-Aug-01 09:33N 33°46' W 118°16'0 0.0
2015-Aug-01 08:33N 33°46' W 118°16'3 2.4
2015-Aug-01 07:24N 33°45' W 118°13'1 0.6
2015-Aug-01 06:33N 33°46' W 118°13'0 0.1
2015-Aug-01 05:33N 33°46' W 118°13'0 0.4
2015-Aug-01 04:33N 33°45' W 118°13'0 0.3
2015-Aug-01 03:33N 33°45' W 118°13'5 4.6
2015-Aug-01 02:33N 33°41' W 118°11'3 2.6
2015-Aug-01 01:32N 33°44' W 118°11'3 2.7
2015-Aug-01 00:32N 33°46' W 118°13'0 0.0
2015-Jul-31 23:33N 33°46' W 118°13'1 0.8
2015-Jul-31 22:33N 33°46' W 118°14'2 2.1
2015-Jul-31 21:33N 33°46' W 118°17'3 3.2
2015-Jul-31 20:33N 33°43' W 118°14'2 1.8
2015-Jul-31 19:32N 33°44' W 118°12'1 0.7
2015-Jul-31 18:25N 33°44' W 118°12'2 2.6
2015-Jul-31 17:32N 33°46' W 118°13'0 0.1
2015-Jul-31 16:33N 33°46' W 118°13'3 2.6
2015-Jul-31 15:33N 33°45' W 118°16'1 1.0
2015-Jul-31 14:33N 33°46' W 118°16'2 1.5
2015-Jul-31 13:33N 33°46' W 118°14'2 2.3
2015-Jul-31 12:33N 33°44' W 118°12'2 1.4
2015-Jul-31 11:29N 33°46' W 118°13'0 0.0
2015-Jul-31 10:33N 33°46' W 118°13'0 0.0
2015-Jul-31 09:31N 33°46' W 118°13'0 0.0
2015-Jul-31 08:28N 33°46' W 118°13'0 0.0
2015-Jul-31 07:19N 33°46' W 118°13'3 0.9
2015-Jul-31 04:33N 33°45' W 118°16'1 0.7
2015-Jul-31 03:30N 33°46' W 118°16'0 0.0
2015-Jul-31 02:32N 33°46' W 118°16'2 2.2
2015-Jul-31 01:33N 33°46' W 118°13'0 0.0
2015-Jul-31 00:33N 33°46' W 118°13'1 0.7
2015-Jul-30 23:33N 33°45' W 118°13'3 1.5
2015-Jul-30 21:29N 33°44' W 118°17'0 0.5
2015-Jul-30 20:27N 33°45' W 118°16'3 2.4
2015-Jul-30 19:14N 33°45' W 118°13'1 0.6
2015-Jul-30 18:25N 33°46' W 118°13'4 4.2
2015-Jul-30 17:33N 33°44' W 118°09'0 0.0
2015-Jul-30 16:25N 33°44' W 118°09'1 1.2
2015-Jul-30 15:33N 33°44' W 118°10'1 1.3
2015-Jul-30 14:24N 33°43' W 118°11'4 4.8
2015-Jul-30 13:34N 33°46' W 118°13'1 1.2
2015-Jul-30 12:34N 33°45' W 118°13'0 0.0
2015-Jul-30 11:33N 33°45' W 118°13'0 0.0
2015-Jul-30 10:33N 33°45' W 118°13'0 0.0
2015-Jul-30 09:27N 33°45' W 118°13'0 0.0
2015-Jul-30 08:33N 33°45' W 118°13'0 0.0
2015-Jul-30 07:33N 33°45' W 118°13'1 0.6
2015-Jul-30 06:30N 33°46' W 118°13'0 0.0
2015-Jul-30 05:34N 33°46' W 118°13'2 2.0
2015-Jul-30 04:33N 33°46' W 118°16'0 0.5
2015-Jul-30 03:33N 33°45' W 118°16'2 1.7
2015-Jul-30 02:10N 33°45' W 118°13'1 1.0
2015-Jul-30 01:33N 33°46' W 118°13'3 2.9
2015-Jul-30 00:33N 33°45' W 118°16'3 3.0
2015-Jul-29 23:33N 33°45' W 118°13'3 3.0
2015-Jul-29 22:33N 33°46' W 118°17'3 1.3
2015-Jul-29 20:29N 33°45' W 118°13'0 0.2
2015-Jul-29 18:33N 33°45' W 118°13'3 2.4
2015-Jul-29 17:18N 33°44' W 118°16'2 3.1
2015-Jul-29 16:33N 33°46' W 118°16'2 2.3
2015-Jul-29 15:33N 33°45' W 118°13'1 1.4
2015-Jul-29 14:33N 33°46' W 118°13'1 1.3
2015-Jul-29 13:31N 33°45' W 118°14'2 2.1
2015-Jul-29 12:24N 33°43' W 118°16'1 0.9
2015-Jul-29 11:33N 33°44' W 118°15'0 0.0
2015-Jul-29 10:33N 33°44' W 118°15'2 2.2
2015-Jul-29 09:30N 33°45' W 118°13'1 1.1
2015-Jul-29 08:33N 33°46' W 118°13'0 0.0
2015-Jul-29 07:33N 33°46' W 118°13'0 0.0
2015-Jul-29 06:33N 33°46' W 118°13'5 2.3
2015-Jul-29 04:25N 33°41' W 118°11'4 5.1
2015-Jul-29 03:33N 33°45' W 118°13'0 0.0
2015-Jul-29 02:19N 33°45' W 118°13'0 0.5
2015-Jul-29 01:24N 33°45' W 118°14'0 0.1
2015-Jul-29 00:29N 33°45' W 118°14'1 1.3
2015-Jul-28 23:33N 33°45' W 118°12'1 1.0
2015-Jul-28 22:29N 33°46' W 118°13'2 2.0
2015-Jul-28 21:24N 33°44' W 118°11'1 0.8
2015-Jul-28 20:21N 33°44' W 118°12'2 3.1
2015-Jul-28 19:33N 33°46' W 118°13'1 0.6
2015-Jul-28 18:33N 33°46' W 118°13'0 0.0
2015-Jul-28 17:33N 33°46' W 118°13'0 0.0
2015-Jul-28 16:33N 33°46' W 118°13'0 0.5
2015-Jul-28 15:33N 33°46' W 118°13'0 0.1
2015-Jul-28 14:33N 33°46' W 118°13'4 1.7
2015-Jul-28 12:22N 33°43' W 118°14'1 0.6
2015-Jul-28 11:07N 33°42' W 118°15'2 3.4
2015-Jul-28 10:33N 33°44' W 118°14'2 2.0
2015-Jul-28 09:33N 33°46' W 118°13'0 0.0
2015-Jul-28 08:33N 33°46' W 118°13'0 0.0
2015-Jul-28 07:33N 33°46' W 118°13'0 0.0
2015-Jul-28 06:33N 33°46' W 118°13'0 0.1
2015-Jul-28 05:34N 33°46' W 118°13'0 0.0
2015-Jul-28 04:33N 33°46' W 118°13'0 0.0
2015-Jul-28 03:32N 33°46' W 118°13'0 0.2
2015-Jul-28 02:33N 33°46' W 118°13'3 2.8
2015-Jul-28 01:26N 33°44' W 118°16'0 0.1
2015-Jul-28 00:16N 33°44' W 118°16'0 0.3
2015-Jul-27 23:33N 33°44' W 118°16'0 0.0
2015-Jul-27 22:33N 33°44' W 118°16'2 1.6
2015-Jul-27 21:19N 33°44' W 118°13'1 0.8
2015-Jul-27 19:32N 33°45' W 118°12'1 1.1
2015-Jul-27 18:33N 33°46' W 118°13'0 0.0
2015-Jul-27 17:33N 33°46' W 118°13'0 0.0
2015-Jul-27 16:32N 33°46' W 118°13'0 0.1
2015-Jul-27 15:33N 33°46' W 118°13'1 0.5
2015-Jul-27 12:29N 33°44' W 118°13'1 0.5
2015-Jul-27 11:10N 33°44' W 118°13'2 2.4
2015-Jul-27 10:33N 33°46' W 118°13'0 0.0
2015-Jul-27 09:33N 33°46' W 118°13'0 0.0
2015-Jul-27 08:33N 33°46' W 118°13'0 0.0
2015-Jul-27 07:33N 33°46' W 118°13'0 0.0
2015-Jul-27 06:33N 33°46' W 118°13'0 0.0
2015-Jul-27 05:33N 33°46' W 118°13'0 0.0
2015-Jul-27 04:33N 33°46' W 118°13'2 2.1
2015-Jul-27 03:33N 33°46' W 118°16'0 0.1
2015-Jul-27 02:33N 33°46' W 118°16'0 0.4
2015-Jul-27 01:33N 33°45' W 118°16'4 4.0
2015-Jul-27 00:30N 33°42' W 118°14'2 1.8
2015-Jul-26 23:23N 33°44' W 118°14'3 3.1
2015-Jul-26 22:30N 33°46' W 118°13'0 0.0
2015-Jul-26 21:08N 33°46' W 118°13'1 2.1
2015-Jul-26 20:33N 33°46' W 118°14'1 1.4
2015-Jul-26 19:33N 33°45' W 118°13'1 0.7
2015-Jul-26 18:33N 33°46' W 118°13'0 0.0
2015-Jul-26 17:28N 33°46' W 118°13'0 0.0
2015-Jul-26 16:33N 33°46' W 118°13'3 2.6
2015-Jul-26 15:32N 33°43' W 118°14'3 2.9
2015-Jul-26 14:33N 33°46' W 118°16'2 2.0
2015-Jul-26 13:33N 33°46' W 118°13'0 0.0
2015-Jul-26 12:33N 33°46' W 118°13'0 0.0
2015-Jul-26 11:33N 33°46' W 118°13'0 0.0
2015-Jul-26 10:33N 33°46' W 118°13'0 0.0
2015-Jul-26 09:33N 33°46' W 118°13'0 0.0
2015-Jul-26 08:34N 33°46' W 118°13'0 0.0
2015-Jul-26 07:33N 33°46' W 118°13'0 0.0
2015-Jul-26 06:27N 33°46' W 118°13'0 0.0
2015-Jul-26 05:33N 33°46' W 118°13'0 0.0
2015-Jul-26 04:33N 33°46' W 118°13'0 0.0
2015-Jul-26 03:34N 33°46' W 118°13'0 0.0
2015-Jul-26 02:33N 33°46' W 118°13'0 0.0
2015-Jul-26 01:33N 33°46' W 118°13'0 0.0
2015-Jul-26 00:33N 33°46' W 118°13'0 0.0
2015-Jul-25 23:33N 33°46' W 118°13'0 0.0
2015-Jul-25 22:22N 33°46' W 118°13'0 0.0
2015-Jul-25 21:32N 33°46' W 118°13'0 0.2
2015-Jul-25 20:33N 33°46' W 118°13'2 1.7
2015-Jul-25 19:33N 33°44' W 118°12'2 1.9
2015-Jul-25 18:33N 33°46' W 118°13'0 0.0
2015-Jul-25 17:33N 33°46' W 118°13'0 0.0
2015-Jul-25 16:34N 33°46' W 118°13'0 0.0
2015-Jul-25 15:33N 33°46' W 118°13'0 0.0
2015-Jul-25 14:33N 33°46' W 118°13'3 2.8
2015-Jul-25 13:33N 33°44' W 118°11'5 4.8
2015-Jul-25 12:33N 33°45' W 118°16'1 1.1
2015-Jul-25 11:34N 33°46' W 118°16'0 0.1
2015-Jul-25 10:30N 33°46' W 118°16'3 3.2
2015-Jul-25 09:33N 33°43' W 118°15'3 1.6
2015-Jul-25 07:31N 33°46' W 118°13'0 0.0
2015-Jul-25 06:33N 33°46' W 118°13'1 0.2
2015-Jul-25 03:16N 33°46' W 118°13'0 0.0
2015-Jul-25 01:25N 33°46' W 118°13'2 1.8
2015-Jul-25 00:33N 33°46' W 118°15'2 2.2
2015-Jul-24 23:33N 33°44' W 118°15'1 1.2
2015-Jul-24 22:33N 33°45' W 118°16'3 1.3
2015-Jul-24 20:31N 33°45' W 118°13'1 0.7
2015-Jul-24 19:33N 33°46' W 118°13'0 0.0
2015-Jul-24 18:33N 33°46' W 118°13'0 0.0
2015-Jul-24 17:28N 33°46' W 118°13'0 0.0
2015-Jul-24 16:27N 33°46' W 118°13'2 2.3
2015-Jul-24 15:25N 33°44' W 118°15'2 2.3
2015-Jul-24 14:33N 33°46' W 118°16'2 2.0
2015-Jul-24 13:31N 33°44' W 118°15'0 0.2
2015-Jul-24 12:33N 33°44' W 118°15'0 0.0
2015-Jul-24 11:33N 33°44' W 118°15'1 0.6
2015-Jul-24 10:32N 33°44' W 118°15'3 2.4
2015-Jul-24 09:30N 33°45' W 118°13'1 0.9
2015-Jul-24 08:33N 33°46' W 118°13'0 0.0
2015-Jul-24 07:33N 33°46' W 118°13'0 0.0
2015-Jul-24 06:33N 33°46' W 118°13'  

Dump ship's entire track history